KEGE/EGE METAR and TAF weather

Enter ICAO airport designator
Station Type Date Time Source
KEGE METAR 2020/09/19 18:56 UTC NOAA

KEGE 191856Z 27009G20KT 10SM CLR 25/M01 A3019 RMK AO2 SLP163 T02501006 PNO $


Station Type Date Time Source
KEGE Decoded METAR 2020/09/19 18:56 UTC NOAA

Eagle County Regional, CO, United States (KEGE) 39-39N 106-55W
Sep 19, 2020 - 02:56 PM EDT / 2020.09.19 1856 UTC
Wind: from the W (270 degrees) at 10 MPH (9 KT) gusting to 23 MPH (20 KT):0
Visibility: 10 mile(s):0
Sky conditions: clear
Temperature: 77.0 F (25.0 C)
Dew Point: 30.9 F (-0.6 C)
Relative Humidity: 18%
Pressure (altimeter): 30.19 in. Hg (1022 hPa)
ob: KEGE 191856Z 27009G20KT 10SM CLR 25/M01 A3019 RMK AO2 SLP163 T02501006 PNO
cycle: 19

Station Type Date Time Source
KEGE TAF 2020/09/19 18:36 UTC NOAA

TAF KEGE 191735Z 1918/2018 28005KT P6SM FEW150
FM192000 25015G25KT P6SM FEW100 FEW200
FM200200 24009KT P6SM VCSH SCT120
FM200600 VRB04KT P6SM SKC

Example: see airport list